Time;durP1;ratioP1;P1;durP2;ratioP2;P2;SDS_P1;SDS_P2;PMS_P1;PMS_P2;Temp;Humidity;BMP_temperature;BMP_pressure;BME280_temperature;BME280_humidity;BME280_pressure;Samples;Min_cycle;Max_cycle;Signal;HPM_P1;HPM_P2
2023/05/07 00:01:35;;;;;;;17.88;11.52;;;;;;;;;;4950784;28;20456;-79
2023/05/07 00:04:01;;;;;;;20.35;12.73;;;;;;;;;;4933733;28;20082;-79
2023/05/07 00:06:28;;;;;;;16.75;11.18;;;;;;;;;;4954798;28;20038;-79
2023/05/07 00:08:54;;;;;;;19.42;12.02;;;;;;;;;;4949983;28;20619;-78
2023/05/07 00:11:19;;;;;;;18.10;11.82;;;;;;;;;;4939114;28;20047;-79
2023/05/07 00:13:45;;;;;;;18.40;12.55;;;;;;;;;;4952143;28;20486;-80
2023/05/07 00:16:10;;;;;;;19.48;11.77;;;;;;;;;;4959766;28;20039;-79
2023/05/07 00:18:36;;;;;;;18.05;12.43;;;;;;;;;;4958973;28;20046;-79
2023/05/07 00:21:01;;;;;;;17.27;11.52;;;;;;;;;;4961669;28;20412;-80
2023/05/07 00:23:26;;;;;;;16.33;11.38;;;;;;;;;;4964142;28;20038;-79
2023/05/07 00:25:52;;;;;;;17.60;11.00;;;;;;;;;;4937132;28;20753;-79
2023/05/07 00:28:17;;;;;;;19.95;11.75;;;;;;;;;;4953952;28;20102;-78
2023/05/07 00:30:42;;;;;;;17.42;11.68;;;;;;;;;;4961967;28;20056;-78
2023/05/07 00:33:08;;;;;;;16.02;10.43;;;;;;;;;;4955278;28;20045;-78
2023/05/07 00:35:33;;;;;;;15.27;10.55;;;;;;;;;;4960056;28;20065;-79
2023/05/07 00:37:59;;;;;;;18.35;11.25;;;;;;;;;;4943456;28;20647;-79
2023/05/07 00:40:25;;;;;;;18.60;11.85;;;;;;;;;;4933184;28;21297;-79
2023/05/07 00:42:50;;;;;;;19.50;11.73;;;;;;;;;;4965964;28;20598;-78
2023/05/07 00:45:16;;;;;;;16.85;11.60;;;;;;;;;;4965990;28;20042;-79
2023/05/07 00:47:42;;;;;;;17.17;11.10;;;;;;;;;;4963254;28;20038;-79
2023/05/07 00:50:10;;;;;;;16.23;10.65;;;;;;;;;;4959254;28;20058;-79
2023/05/07 00:52:37;;;;;;;16.65;11.10;;;;;;;;;;4938407;28;20035;-80
2023/05/07 00:55:06;;;;;;;15.38;10.60;;;;;;;;;;4937275;28;20052;-80
2023/05/07 00:57:37;;;;;;;19.33;12.88;;;;;;;;;;4964128;28;20124;-79
2023/05/07 01:00:11;;;;;;;17.88;11.07;;;;;;;;;;4957561;28;20031;-80
2023/05/07 01:02:37;;;;;;;17.05;11.38;;;;;;;;;;4958324;28;20051;-80
2023/05/07 01:05:05;;;;;;;20.63;12.32;;;;;;;;;;4928765;28;20053;-79
2023/05/07 01:07:32;;;;;;;18.73;11.65;;;;;;;;;;4967611;28;20491;-79
2023/05/07 01:09:58;;;;;;;19.33;11.93;;;;;;;;;;4957424;28;20034;-79
2023/05/07 01:12:24;;;;;;;20.52;11.93;;;;;;;;;;4954642;28;20039;-79
2023/05/07 01:14:50;;;;;;;16.92;11.50;;;;;;;;;;4963121;28;20063;-79
2023/05/07 01:17:17;;;;;;;18.05;10.82;;;;;;;;;;4957762;28;20125;-80
2023/05/07 01:19:42;;;;;;;20.60;12.30;;;;;;;;;;4936903;28;20527;-80
2023/05/07 01:22:10;;;;;;;18.08;11.38;;;;;;;;;;4961183;28;20171;-80
2023/05/07 01:24:36;;;;;;;19.33;11.90;;;;;;;;;;4962485;28;20109;-79
2023/05/07 01:27:02;;;;;;;17.45;11.27;;;;;;;;;;4965087;28;20035;-80
2023/05/07 01:29:28;;;;;;;17.50;10.93;;;;;;;;;;4963698;28;20046;-80
2023/05/07 01:31:57;;;;;;;18.33;11.20;;;;;;;;;;4959408;28;20073;-79
2023/05/07 01:34:24;;;;;;;16.63;10.50;;;;;;;;;;4922136;28;20091;-79
2023/05/07 01:36:50;;;;;;;17.80;10.82;;;;;;;;;;4961463;28;20046;-78
2023/05/07 01:39:16;;;;;;;18.58;12.00;;;;;;;;;;4947685;28;20037;-79
2023/05/07 01:41:43;;;;;;;20.77;12.38;;;;;;;;;;4959625;28;20109;-79
2023/05/07 01:44:12;;;;;;;18.80;12.30;;;;;;;;;;4962427;28;20106;-77
2023/05/07 01:46:37;;;;;;;17.35;10.65;;;;;;;;;;4919614;28;20035;-78
2023/05/07 01:49:03;;;;;;;17.75;11.57;;;;;;;;;;4962011;28;20092;-78
2023/05/07 01:51:29;;;;;;;20.42;11.43;;;;;;;;;;4964177;28;20045;-80
2023/05/07 01:53:55;;;;;;;18.90;11.02;;;;;;;;;;4959151;28;20055;-78
2023/05/07 01:56:20;;;;;;;17.15;10.88;;;;;;;;;;4954056;28;20046;-79
2023/05/07 01:58:46;;;;;;;19.60;11.05;;;;;;;;;;4963899;28;20038;-78
2023/05/07 02:01:13;;;;;;;16.50;10.70;;;;;;;;;;4935220;28;20129;-80
2023/05/07 02:03:39;;;;;;;16.40;10.48;;;;;;;;;;4954342;28;20053;-81
2023/05/07 02:06:04;;;;;;;18.27;11.10;;;;;;;;;;4948977;28;20034;-80
2023/05/07 02:08:30;;;;;;;18.35;10.57;;;;;;;;;;4955771;28;20126;-79
2023/05/07 02:10:56;;;;;;;16.58;10.40;;;;;;;;;;4961426;28;20049;-80
2023/05/07 02:13:22;;;;;;;17.83;10.88;;;;;;;;;;4957313;28;20031;-79
2023/05/07 02:15:50;;;;;;;17.77;11.07;;;;;;;;;;4942663;28;20043;-80
2023/05/07 02:18:16;;;;;;;16.65;10.68;;;;;;;;;;4953029;28;20516;-78
2023/05/07 02:20:42;;;;;;;14.68;9.48;;;;;;;;;;4956401;28;20038;-78
2023/05/07 02:23:07;;;;;;;15.75;9.13;;;;;;;;;;4961888;28;20532;-79
2023/05/07 02:25:33;;;;;;;14.05;9.15;;;;;;;;;;4957920;28;20043;-78
2023/05/07 02:27:58;;;;;;;16.73;9.77;;;;;;;;;;4937487;28;20399;-79
2023/05/07 02:30:25;;;;;;;17.88;10.68;;;;;;;;;;4955234;28;20034;-78
2023/05/07 02:32:50;;;;;;;15.32;9.43;;;;;;;;;;4958178;28;20038;-80
2023/05/07 02:35:15;;;;;;;16.30;9.80;;;;;;;;;;4962843;28;20109;-79
2023/05/07 02:37:41;;;;;;;15.68;9.10;;;;;;;;;;4960563;28;20753;-79
2023/05/07 02:40:07;;;;;;;16.02;10.23;;;;;;;;;;4956200;28;20504;-79
2023/05/07 02:42:32;;;;;;;14.48;9.05;;;;;;;;;;4941579;28;20935;-79
2023/05/07 02:44:59;;;;;;;15.93;10.18;;;;;;;;;;4960736;28;20050;-78
2023/05/07 02:47:26;;;;;;;14.93;8.95;;;;;;;;;;4960887;28;20070;-78
2023/05/07 02:49:52;;;;;;;15.13;9.57;;;;;;;;;;4958713;28;20607;-78
2023/05/07 02:52:18;;;;;;;14.88;8.60;;;;;;;;;;4941073;28;20061;-81
2023/05/07 02:54:43;;;;;;;14.02;9.55;;;;;;;;;;4957526;28;20571;-80
2023/05/07 02:57:09;;;;;;;14.90;9.27;;;;;;;;;;4933386;28;20046;-79
2023/05/07 02:59:34;;;;;;;12.65;7.57;;;;;;;;;;4959628;28;20039;-81
2023/05/07 03:01:59;;;;;;;14.18;8.77;;;;;;;;;;4957217;28;20045;-80
2023/05/07 03:04:25;;;;;;;13.43;8.65;;;;;;;;;;4962131;28;20062;-81
2023/05/07 03:06:50;;;;;;;13.13;8.75;;;;;;;;;;4963491;28;20042;-80
2023/05/07 03:09:16;;;;;;;13.88;8.82;;;;;;;;;;4959424;28;20038;-79
2023/05/07 03:11:42;;;;;;;15.10;8.48;;;;;;;;;;4937818;28;20042;-80
2023/05/07 03:14:07;;;;;;;14.65;9.10;;;;;;;;;;4954817;28;20038;-81
2023/05/07 03:16:32;;;;;;;14.10;8.77;;;;;;;;;;4960193;28;20638;-80
2023/05/07 03:18:58;;;;;;;12.90;8.80;;;;;;;;;;4958088;28;20073;-80
2023/05/07 03:21:23;;;;;;;15.55;8.75;;;;;;;;;;4960028;28;20424;-80
2023/05/07 03:23:49;;;;;;;13.52;7.78;;;;;;;;;;4940869;28;20043;-80
2023/05/07 03:26:14;;;;;;;15.88;8.63;;;;;;;;;;4938750;28;20043;-80
2023/05/07 03:28:40;;;;;;;16.05;8.77;;;;;;;;;;4963717;28;20073;-80
2023/05/07 03:31:05;;;;;;;14.93;7.97;;;;;;;;;;4961291;28;20515;-81
2023/05/07 03:33:33;;;;;;;14.82;8.55;;;;;;;;;;4955633;28;20039;-79
2023/05/07 03:35:58;;;;;;;13.90;8.70;;;;;;;;;;4955183;28;20058;-80
2023/05/07 03:38:24;;;;;;;15.48;8.02;;;;;;;;;;4943803;28;20039;-80
2023/05/07 03:40:49;;;;;;;15.43;9.40;;;;;;;;;;4962502;28;20045;-80
2023/05/07 03:43:15;;;;;;;14.90;8.70;;;;;;;;;;4955861;28;20055;-81
2023/05/07 03:45:40;;;;;;;17.08;8.90;;;;;;;;;;4952685;28;20042;-79
2023/05/07 03:48:05;;;;;;;14.23;8.57;;;;;;;;;;4954360;28;20475;-81
2023/05/07 03:50:31;;;;;;;14.68;8.55;;;;;;;;;;4960947;28;20034;-80
2023/05/07 03:52:56;;;;;;;16.17;8.68;;;;;;;;;;4941378;28;20567;-82
2023/05/07 03:55:22;;;;;;;25.13;9.73;;;;;;;;;;4960199;28;20543;-81
2023/05/07 03:57:47;;;;;;;14.15;8.25;;;;;;;;;;4955884;28;20042;-80
2023/05/07 04:00:13;;;;;;;14.65;8.82;;;;;;;;;;4959861;28;20046;-80
2023/05/07 04:02:38;;;;;;;17.10;9.13;;;;;;;;;;4959674;28;20107;-80
2023/05/07 04:05:04;;;;;;;15.40;8.73;;;;;;;;;;4963372;28;20043;-80
2023/05/07 04:07:30;;;;;;;14.75;8.70;;;;;;;;;;4943856;28;20051;-80
2023/05/07 04:09:55;;;;;;;17.00;9.55;;;;;;;;;;4960796;28;20042;-81
2023/05/07 04:12:21;;;;;;;14.65;8.93;;;;;;;;;;4963559;28;20128;-80
2023/05/07 04:14:46;;;;;;;11.02;7.63;;;;;;;;;;4966935;28;20077;-79
2023/05/07 04:17:11;;;;;;;12.77;8.75;;;;;;;;;;4961651;28;20113;-79
2023/05/07 04:19:37;;;;;;;12.98;8.43;;;;;;;;;;4961885;28;20046;-78
2023/05/07 04:22:02;;;;;;;14.85;8.70;;;;;;;;;;4943072;28;20842;-80
2023/05/07 04:24:31;;;;;;;14.38;8.50;;;;;;;;;;4961824;28;20092;-79
2023/05/07 04:26:58;;;;;;;14.13;8.63;;;;;;;;;;4966149;28;20053;-80
2023/05/07 04:29:23;;;;;;;15.00;8.90;;;;;;;;;;4960097;28;20214;-79
2023/05/07 04:31:48;;;;;;;16.15;10.07;;;;;;;;;;4962019;28;20081;-79
2023/05/07 04:34:14;;;;;;;15.13;9.40;;;;;;;;;;4959693;28;20527;-80
2023/05/07 04:36:39;;;;;;;15.82;9.55;;;;;;;;;;4929400;28;20048;-81
2023/05/07 04:39:05;;;;;;;16.25;9.68;;;;;;;;;;4961893;28;20047;-79
2023/05/07 04:41:31;;;;;;;15.48;9.40;;;;;;;;;;4959121;28;20046;-80
2023/05/07 04:43:58;;;;;;;16.63;9.05;;;;;;;;;;4957733;28;20098;-80
2023/05/07 04:46:24;;;;;;;13.93;8.38;;;;;;;;;;4962972;28;20034;-80
2023/05/07 04:48:50;;;;;;;14.63;9.07;;;;;;;;;;4930791;28;20105;-79
2023/05/07 04:51:15;;;;;;;17.17;9.63;;;;;;;;;;4947464;28;20117;-79
2023/05/07 04:53:41;;;;;;;14.68;7.88;;;;;;;;;;4945670;28;20049;-79
2023/05/07 04:56:06;;;;;;;14.15;8.35;;;;;;;;;;4954254;28;20088;-80
2023/05/07 04:58:32;;;;;;;13.55;7.97;;;;;;;;;;4945338;28;20058;-80
2023/05/07 05:00:58;;;;;;;14.43;8.18;;;;;;;;;;4954185;28;20046;-79
2023/05/07 05:03:24;;;;;;;13.82;7.50;;;;;;;;;;4941402;28;20042;-81
2023/05/07 05:05:51;;;;;;;11.00;7.00;;;;;;;;;;4939797;28;20096;-79
2023/05/07 05:08:17;;;;;;;13.05;7.35;;;;;;;;;;4931943;28;20043;-80
2023/05/07 05:10:43;;;;;;;13.73;7.97;;;;;;;;;;4948950;28;20049;-81
2023/05/07 05:13:09;;;;;;;12.23;7.05;;;;;;;;;;4960136;28;20117;-81
2023/05/07 05:15:35;;;;;;;14.07;8.23;;;;;;;;;;4955305;28;20778;-81
2023/05/07 05:18:00;;;;;;;11.70;6.90;;;;;;;;;;4937395;28;20146;-80
2023/05/07 05:20:26;;;;;;;12.73;7.35;;;;;;;;;;4957545;28;20588;-80
2023/05/07 05:22:51;;;;;;;12.50;7.40;;;;;;;;;;4949369;28;20137;-80
2023/05/07 05:25:17;;;;;;;13.20;7.25;;;;;;;;;;4939916;28;20043;-80
2023/05/07 05:27:43;;;;;;;12.02;7.20;;;;;;;;;;4951906;28;20046;-80
2023/05/07 05:30:08;;;;;;;12.23;7.53;;;;;;;;;;4957118;28;20155;-80
2023/05/07 05:32:34;;;;;;;12.35;6.55;;;;;;;;;;4922673;28;20039;-80
2023/05/07 05:34:59;;;;;;;13.55;7.63;;;;;;;;;;4942602;28;20051;-80
2023/05/07 05:37:25;;;;;;;13.73;7.00;;;;;;;;;;4955428;28;20068;-80
2023/05/07 05:39:50;;;;;;;12.00;7.53;;;;;;;;;;4957127;28;20494;-79
2023/05/07 05:42:16;;;;;;;15.57;7.80;;;;;;;;;;4956292;28;20047;-79
2023/05/07 05:44:41;;;;;;;12.63;7.82;;;;;;;;;;4955013;28;20486;-79
2023/05/07 05:47:07;;;;;;;12.80;7.25;;;;;;;;;;4932329;28;20047;-79
2023/05/07 05:49:32;;;;;;;13.32;7.85;;;;;;;;;;4958396;28;20069;-79
2023/05/07 05:51:57;;;;;;;11.48;7.45;;;;;;;;;;4950810;28;21002;-79
2023/05/07 05:54:23;;;;;;;16.17;7.57;;;;;;;;;;4936829;28;20158;-79
2023/05/07 05:56:49;;;;;;;13.48;7.63;;;;;;;;;;4929969;28;20039;-80
2023/05/07 05:59:14;;;;;;;15.77;7.43;;;;;;;;;;4942730;28;20050;-78
2023/05/07 06:01:40;;;;;;;14.30;7.25;;;;;;;;;;4952346;28;20546;-79
2023/05/07 06:04:05;;;;;;;14.20;7.50;;;;;;;;;;4948601;28;20081;-80
2023/05/07 06:06:31;;;;;;;13.07;6.85;;;;;;;;;;4946353;28;20114;-79
2023/05/07 06:08:57;;;;;;;11.25;7.38;;;;;;;;;;4942168;28;20047;-78
2023/05/07 06:11:22;;;;;;;15.88;8.10;;;;;;;;;;4950459;28;20050;-77
2023/05/07 06:13:47;;;;;;;15.95;7.65;;;;;;;;;;4939530;28;20122;-77
2023/05/07 06:16:14;;;;;;;14.52;6.85;;;;;;;;;;4949143;28;20047;-75
2023/05/07 06:18:39;;;;;;;13.30;7.18;;;;;;;;;;4953580;28;20049;-77
2023/05/07 06:21:04;;;;;;;12.18;7.30;;;;;;;;;;4944206;28;20046;-76
2023/05/07 06:23:30;;;;;;;14.35;7.63;;;;;;;;;;4957537;28;20458;-76
2023/05/07 06:25:56;;;;;;;15.18;7.63;;;;;;;;;;4952895;28;20072;-78
2023/05/07 06:28:22;;;;;;;15.90;7.97;;;;;;;;;;4935247;28;20663;-77
2023/05/07 06:30:49;;;;;;;13.18;7.95;;;;;;;;;;4950725;28;20049;-77
2023/05/07 06:33:15;;;;;;;16.55;7.95;;;;;;;;;;4956335;28;20053;-77
2023/05/07 06:35:40;;;;;;;14.73;8.10;;;;;;;;;;4955183;28;20034;-77
2023/05/07 06:38:06;;;;;;;13.60;7.32;;;;;;;;;;4953162;28;20039;-78
2023/05/07 06:40:31;;;;;;;11.02;6.45;;;;;;;;;;4939732;28;20090;-77
2023/05/07 06:42:57;;;;;;;12.13;7.05;;;;;;;;;;4900936;28;20548;-78
2023/05/07 06:45:22;;;;;;;11.98;7.25;;;;;;;;;;4951214;28;20669;-77
2023/05/07 06:47:47;;;;;;;12.07;7.32;;;;;;;;;;4944426;28;20041;-77
2023/05/07 06:50:13;;;;;;;11.68;6.93;;;;;;;;;;4954687;28;20068;-77
2023/05/07 06:52:38;;;;;;;13.68;6.88;;;;;;;;;;4952112;28;20616;-77
2023/05/07 06:55:05;;;;;;;15.05;7.88;;;;;;;;;;4952673;28;20046;-77
2023/05/07 06:57:30;;;;;;;13.25;6.90;;;;;;;;;;4932684;28;20062;-77
2023/05/07 06:59:55;;;;;;;11.95;7.13;;;;;;;;;;4952368;28;20038;-78
2023/05/07 07:02:21;;;;;;;14.35;7.20;;;;;;;;;;4955290;28;20053;-77
2023/05/07 07:04:46;;;;;;;12.18;7.85;;;;;;;;;;4954093;28;20042;-76
2023/05/07 07:07:12;;;;;;;14.38;7.15;;;;;;;;;;4954806;28;20050;-76
2023/05/07 07:09:37;;;;;;;11.45;7.53;;;;;;;;;;4940210;28;20503;-76
2023/05/07 07:12:03;;;;;;;14.00;7.63;;;;;;;;;;4905460;28;20471;-76
2023/05/07 07:14:28;;;;;;;13.23;7.38;;;;;;;;;;4954062;28;20050;-76
2023/05/07 07:16:53;;;;;;;11.57;7.03;;;;;;;;;;4953711;28;20042;-76
2023/05/07 07:19:20;;;;;;;11.05;6.75;;;;;;;;;;4948347;28;20586;-76
2023/05/07 07:21:45;;;;;;;14.32;7.47;;;;;;;;;;4952486;28;20096;-76
2023/05/07 07:24:10;;;;;;;15.30;8.07;;;;;;;;;;4940682;28;20046;-76
2023/05/07 07:26:36;;;;;;;10.60;6.22;;;;;;;;;;4931804;28;20058;-76
2023/05/07 07:29:01;;;;;;;13.32;7.85;;;;;;;;;;4951056;28;20127;-77
2023/05/07 07:31:27;;;;;;;13.88;8.02;;;;;;;;;;4959876;28;20132;-76
2023/05/07 07:33:52;;;;;;;14.18;7.10;;;;;;;;;;4954827;28;20042;-76
2023/05/07 07:36:17;;;;;;;14.10;7.38;;;;;;;;;;4960711;28;20133;-76
2023/05/07 07:38:43;;;;;;;12.77;7.97;;;;;;;;;;4948537;28;20051;-77
2023/05/07 07:41:09;;;;;;;12.98;7.20;;;;;;;;;;4935745;28;20721;-76
2023/05/07 07:43:35;;;;;;;13.02;7.55;;;;;;;;;;4957705;28;20448;-77
2023/05/07 07:46:01;;;;;;;13.90;7.90;;;;;;;;;;4958922;28;20094;-77
2023/05/07 07:48:26;;;;;;;14.02;7.90;;;;;;;;;;4932343;28;20505;-77
2023/05/07 07:50:51;;;;;;;14.00;8.45;;;;;;;;;;4943031;28;21033;-76
2023/05/07 07:53:18;;;;;;;14.90;8.57;;;;;;;;;;4923485;28;20038;-76
2023/05/07 07:55:43;;;;;;;14.65;8.93;;;;;;;;;;4938912;28;20524;-77
2023/05/07 07:58:09;;;;;;;16.55;9.32;;;;;;;;;;4943262;28;20054;-76
2023/05/07 08:00:35;;;;;;;13.75;7.85;;;;;;;;;;4933925;28;20095;-76
2023/05/07 08:03:00;;;;;;;17.98;9.80;;;;;;;;;;4958074;28;20046;-76
2023/05/07 08:05:26;;;;;;;16.13;9.40;;;;;;;;;;4955731;28;20057;-77
2023/05/07 08:07:53;;;;;;;12.25;8.77;;;;;;;;;;4938608;28;20068;-75
2023/05/07 08:10:21;;;;;;;12.38;7.20;;;;;;;;;;4945625;28;20030;-77
2023/05/07 08:12:50;;;;;;;48.70;9.85;;;;;;;;;;4957341;28;20395;-76
2023/05/07 08:15:17;;;;;;;16.60;9.07;;;;;;;;;;4959278;28;20187;-76
2023/05/07 08:17:42;;;;;;;15.05;8.68;;;;;;;;;;4946684;28;20046;-76
2023/05/07 08:20:08;;;;;;;15.10;9.00;;;;;;;;;;4941556;28;20034;-76
2023/05/07 08:22:34;;;;;;;16.70;10.02;;;;;;;;;;4942371;28;20056;-77
2023/05/07 08:25:00;;;;;;;15.55;9.65;;;;;;;;;;4954212;28;20050;-76
2023/05/07 08:27:25;;;;;;;16.52;9.63;;;;;;;;;;4957735;28;20054;-76
2023/05/07 08:29:51;;;;;;;15.57;9.48;;;;;;;;;;4953550;28;20086;-76
2023/05/07 08:32:16;;;;;;;15.88;9.82;;;;;;;;;;4954839;28;20129;-76
2023/05/07 08:34:42;;;;;;;14.88;8.88;;;;;;;;;;4922046;28;20538;-77
2023/05/07 08:37:07;;;;;;;15.68;10.15;;;;;;;;;;4950454;28;20031;-77
2023/05/07 08:39:32;;;;;;;15.85;9.85;;;;;;;;;;4946793;28;20046;-77
2023/05/07 08:42:04;;;;;;;19.05;10.10;;;;;;;;;;4951911;28;20392;-77
2023/05/07 08:44:33;;;;;;;18.45;10.23;;;;;;;;;;4953100;28;20800;-76
2023/05/07 08:47:00;;;;;;;15.90;10.05;;;;;;;;;;4929929;28;20326;-77
2023/05/07 08:49:27;;;;;;;18.52;11.35;;;;;;;;;;4908669;28;20249;-77
2023/05/07 08:51:52;;;;;;;17.20;10.80;;;;;;;;;;4950492;28;20045;-76
2023/05/07 08:54:19;;;;;;;16.92;10.52;;;;;;;;;;4949757;28;20042;-77
2023/05/07 08:56:45;;;;;;;18.17;11.65;;;;;;;;;;4954866;28;20046;-77
2023/05/07 08:59:12;;;;;;;17.90;10.88;;;;;;;;;;4956123;28;20399;-76
2023/05/07 09:01:38;;;;;;;17.35;11.20;;;;;;;;;;4939877;28;20046;-76
2023/05/07 09:04:04;;;;;;;17.35;10.73;;;;;;;;;;4952034;28;20736;-77
2023/05/07 09:06:30;;;;;;;19.60;11.00;;;;;;;;;;4926069;28;20055;-76
2023/05/07 09:08:55;;;;;;;19.30;11.68;;;;;;;;;;4942690;28;20736;-76
2023/05/07 09:11:24;;;;;;;18.15;11.43;;;;;;;;;;4941865;28;20082;-76
2023/05/07 09:13:57;;;;;;;18.95;11.77;;;;;;;;;;4951926;28;20038;-76
2023/05/07 09:16:25;;;;;;;17.58;11.60;;;;;;;;;;4934913;28;20046;-76
2023/05/07 09:18:54;;;;;;;20.02;12.57;;;;;;;;;;4955609;28;20107;-78
2023/05/07 09:21:20;;;;;;;18.20;11.32;;;;;;;;;;4951557;28;20657;-77
2023/05/07 09:23:51;;;;;;;16.65;9.93;;;;;;;;;;4933905;28;20499;-78
2023/05/07 09:26:17;;;;;;;17.92;11.43;;;;;;;;;;4958158;28;20589;-79
2023/05/07 09:28:43;;;;;;;20.98;11.55;;;;;;;;;;4934441;28;20086;-79
2023/05/07 09:31:09;;;;;;;19.02;11.95;;;;;;;;;;4955703;28;20035;-79
2023/05/07 09:33:35;;;;;;;17.50;10.75;;;;;;;;;;4952516;28;20050;-78
2023/05/07 09:36:05;;;;;;;18.10;11.80;;;;;;;;;;4945195;28;20038;-78
2023/05/07 09:38:33;;;;;;;19.98;11.90;;;;;;;;;;4942509;28;20053;-78
2023/05/07 09:41:05;;;;;;;18.65;11.20;;;;;;;;;;4941918;28;20130;-78
2023/05/07 09:43:35;;;;;;;13.80;9.77;;;;;;;;;;4930546;28;20845;-78
2023/05/07 09:46:07;;;;;;;17.60;10.85;;;;;;;;;;4938204;28;20050;-78
2023/05/07 09:48:36;;;;;;;18.00;11.27;;;;;;;;;;4944882;28;20598;-78
2023/05/07 09:51:06;;;;;;;18.35;11.70;;;;;;;;;;4949353;28;20046;-78
2023/05/07 09:53:33;;;;;;;18.75;10.85;;;;;;;;;;4935320;28;20043;-78
2023/05/07 09:55:59;;;;;;;17.65;11.60;;;;;;;;;;4935214;28;20043;-78
2023/05/07 09:58:26;;;;;;;19.27;12.15;;;;;;;;;;4955775;28;20044;-78
2023/05/07 10:00:52;;;;;;;17.98;11.30;;;;;;;;;;4946226;28;20062;-78
2023/05/07 10:03:19;;;;;;;19.38;11.85;;;;;;;;;;4949400;28;20401;-78
2023/05/07 10:05:46;;;;;;;15.75;10.23;;;;;;;;;;4952623;28;20041;-78
2023/05/07 10:08:11;;;;;;;15.70;10.07;;;;;;;;;;4936601;28;20599;-78
2023/05/07 10:10:37;;;;;;;18.55;11.40;;;;;;;;;;4953294;28;20103;-78
2023/05/07 10:13:05;;;;;;;19.00;12.18;;;;;;;;;;4947854;28;20053;-78
2023/05/07 10:15:31;;;;;;;17.83;11.27;;;;;;;;;;4950741;28;20046;-78
2023/05/07 10:17:57;;;;;;;17.98;10.80;;;;;;;;;;4930399;28;20133;-78
2023/05/07 10:20:23;;;;;;;17.55;11.32;;;;;;;;;;4952343;28;20570;-78
2023/05/07 10:22:50;;;;;;;17.90;12.38;;;;;;;;;;4936046;28;20062;-78
2023/05/07 10:25:25;;;;;;;17.35;10.90;;;;;;;;;;4950729;28;20044;-78
2023/05/07 10:27:55;;;;;;;16.45;10.85;;;;;;;;;;4948845;28;20675;-78
2023/05/07 10:30:45;;;;;;;17.10;10.40;;;;;;;;;;4955278;28;20054;-78
2023/05/07 10:33:13;;;;;;;19.45;11.15;;;;;;;;;;4936599;28;20444;-78
2023/05/07 10:35:43;;;;;;;17.42;11.40;;;;;;;;;;4949939;28;20094;-77
2023/05/07 10:38:09;;;;;;;17.73;12.50;;;;;;;;;;4951089;28;20130;-78
2023/05/07 10:40:35;;;;;;;16.35;11.38;;;;;;;;;;4953123;28;20133;-77
2023/05/07 10:43:04;;;;;;;17.65;12.10;;;;;;;;;;4954540;28;20074;-78
2023/05/07 10:45:31;;;;;;;19.52;12.02;;;;;;;;;;4935248;28;20078;-78
2023/05/07 10:48:16;;;;;;;17.40;12.18;;;;;;;;;;4944810;28;20043;-78
2023/05/07 10:50:45;;;;;;;18.67;12.35;;;;;;;;;;4950322;28;20046;-78
2023/05/07 10:53:16;;;;;;;18.52;12.73;;;;;;;;;;4938284;28;20041;-78
2023/05/07 10:55:42;;;;;;;20.65;13.27;;;;;;;;;;4947131;28;20049;-77
2023/05/07 10:58:27;;;;;;;18.83;12.23;;;;;;;;;;4933163;28;20046;-78
2023/05/07 11:01:03;;;;;;;18.65;13.05;;;;;;;;;;4954247;28;20644;-78
2023/05/07 11:03:30;;;;;;;18.83;11.73;;;;;;;;;;4955663;28;20097;-78
2023/05/07 11:06:09;;;;;;;19.10;11.40;;;;;;;;;;4953167;28;20042;-78
2023/05/07 11:08:54;;;;;;;16.13;11.25;;;;;;;;;;4903217;28;20104;-78
2023/05/07 11:11:50;;;;;;;16.92;11.63;;;;;;;;;;4948595;28;20125;-78
2023/05/07 11:14:41;;;;;;;15.85;10.23;;;;;;;;;;4952629;28;20034;-78
2023/05/07 11:17:07;;;;;;;16.65;10.55;;;;;;;;;;4918658;28;20102;-78
2023/05/07 11:19:55;;;;;;;15.80;10.40;;;;;;;;;;4946113;28;20098;-77
2023/05/07 11:22:32;;;;;;;14.38;9.55;;;;;;;;;;4952857;28;20464;-78
2023/05/07 11:25:05;;;;;;;16.90;11.50;;;;;;;;;;4936969;28;20087;-77
2023/05/07 11:27:31;;;;;;;14.95;10.15;;;;;;;;;;4898562;28;20044;-77
2023/05/07 11:29:57;;;;;;;15.43;10.18;;;;;;;;;;4950997;28;20073;-78
2023/05/07 11:32:27;;;;;;;14.82;10.00;;;;;;;;;;4952496;28;20062;-78
2023/05/07 11:34:56;;;;;;;15.95;10.43;;;;;;;;;;4957197;28;20050;-78
2023/05/07 11:37:24;;;;;;;14.82;10.38;;;;;;;;;;4950876;28;20058;-79
2023/05/07 11:39:54;;;;;;;16.10;10.68;;;;;;;;;;4936762;28;20054;-78
2023/05/07 11:42:33;;;;;;;16.70;11.45;;;;;;;;;;4954306;28;20047;-77
2023/05/07 11:44:59;;;;;;;14.75;10.82;;;;;;;;;;4956791;28;20511;-78
2023/05/07 11:47:25;;;;;;;15.38;10.57;;;;;;;;;;4953002;28;20051;-78
2023/05/07 11:49:53;;;;;;;14.25;9.85;;;;;;;;;;4952370;28;20928;-79
2023/05/07 11:52:21;;;;;;;18.73;11.52;;;;;;;;;;4927293;28;20528;-78
2023/05/07 11:54:54;;;;;;;15.52;10.57;;;;;;;;;;4949470;28;20043;-78
2023/05/07 11:57:20;;;;;;;18.48;11.23;;;;;;;;;;4957570;28;20731;-78
2023/05/07 11:59:47;;;;;;;14.07;10.15;;;;;;;;;;4953875;28;20038;-78
2023/05/07 12:02:16;;;;;;;14.93;9.85;;;;;;;;;;4950482;28;20823;-78
2023/05/07 12:04:42;;;;;;;10.75;8.23;;;;;;;;;;4927797;28;20039;-78
2023/05/07 12:07:15;;;;;;;14.57;9.82;;;;;;;;;;4954024;28;20053;-78
2023/05/07 12:09:44;;;;;;;14.40;10.27;;;;;;;;;;4956747;28;20587;-78
2023/05/07 12:12:09;;;;;;;14.40;10.55;;;;;;;;;;4965198;28;20046;-78
2023/05/07 12:14:42;;;;;;;15.05;10.40;;;;;;;;;;4967002;28;20136;-79
2023/05/07 12:17:09;;;;;;;13.38;9.77;;;;;;;;;;4945225;28;20045;-79
2023/05/07 12:19:36;;;;;;;13.25;9.77;;;;;;;;;;4957192;28;20039;-79
2023/05/07 12:22:03;;;;;;;14.90;10.82;;;;;;;;;;4957881;28;20039;-79
2023/05/07 12:24:29;;;;;;;13.07;9.85;;;;;;;;;;4958424;28;20047;-79
2023/05/07 12:26:54;;;;;;;14.93;9.98;;;;;;;;;;4949339;28;20720;-79
2023/05/07 12:29:23;;;;;;;13.48;9.23;;;;;;;;;;4966362;28;20900;-79
2023/05/07 12:31:50;;;;;;;12.98;9.95;;;;;;;;;;4914977;28;20067;-79
2023/05/07 12:34:15;;;;;;;13.13;9.63;;;;;;;;;;4947275;28;20034;-78
2023/05/07 12:36:41;;;;;;;12.82;9.68;;;;;;;;;;4944923;28;20099;-78
2023/05/07 12:39:10;;;;;;;14.35;10.00;;;;;;;;;;4950561;28;20046;-78
2023/05/07 12:42:00;;;;;;;12.70;9.90;;;;;;;;;;4961524;28;20057;-79
2023/05/07 12:44:30;;;;;;;12.93;9.38;;;;;;;;;;4927951;28;20113;-79
2023/05/07 12:46:55;;;;;;;12.32;9.70;;;;;;;;;;4959156;28;20042;-78
2023/05/07 12:49:21;;;;;;;13.60;10.00;;;;;;;;;;4947783;28;20085;-79
2023/05/07 12:51:48;;;;;;;11.80;10.30;;;;;;;;;;4959533;28;20041;-78
2023/05/07 12:54:35;;;;;;;12.52;9.85;;;;;;;;;;4963604;28;20109;-78
2023/05/07 12:57:05;;;;;;;12.88;9.95;;;;;;;;;;4915980;28;20139;-78
2023/05/07 12:59:32;;;;;;;10.90;9.70;;;;;;;;;;4959505;28;20097;-78
2023/05/07 13:01:57;;;;;;;11.38;10.13;;;;;;;;;;4958248;28;20086;-78
2023/05/07 13:04:25;;;;;;;11.32;9.32;;;;;;;;;;4959419;28;20070;-79
2023/05/07 13:06:50;;;;;;;11.77;9.65;;;;;;;;;;4963227;28;20054;-79
2023/05/07 13:09:15;;;;;;;12.10;10.70;;;;;;;;;;4940368;28;20046;-78
2023/05/07 13:11:41;;;;;;;10.85;9.52;;;;;;;;;;4960077;28;20054;-78
2023/05/07 13:14:06;;;;;;;12.07;9.77;;;;;;;;;;4955448;28;20170;-77
2023/05/07 13:16:31;;;;;;;11.90;9.48;;;;;;;;;;4962611;28;20042;-78
2023/05/07 13:18:57;;;;;;;16.80;9.98;;;;;;;;;;4959465;28;20043;-77
2023/05/07 13:21:22;;;;;;;10.75;9.60;;;;;;;;;;4951563;28;20061;-79
2023/05/07 13:23:47;;;;;;;10.93;9.82;;;;;;;;;;4932611;28;20050;-78
2023/05/07 13:26:13;;;;;;;10.20;8.88;;;;;;;;;;4955079;28;20521;-79
2023/05/07 13:28:38;;;;;;;9.93;8.65;;;;;;;;;;4965049;28;20121;-78
2023/05/07 13:31:03;;;;;;;11.25;8.95;;;;;;;;;;4943696;28;20539;-79
2023/05/07 13:33:30;;;;;;;10.10;8.55;;;;;;;;;;4958401;28;20042;-78
2023/05/07 13:35:56;;;;;;;10.90;8.20;;;;;;;;;;4953554;28;20443;-79
2023/05/07 13:38:23;;;;;;;9.35;8.27;;;;;;;;;;4941664;28;20597;-78
2023/05/07 13:40:49;;;;;;;9.57;8.30;;;;;;;;;;4963114;28;20098;-78
2023/05/07 13:43:14;;;;;;;11.07;8.30;;;;;;;;;;4962099;28;20111;-79
2023/05/07 13:45:39;;;;;;;8.82;7.93;;;;;;;;;;4953489;28;20054;-78
2023/05/07 13:48:05;;;;;;;8.43;7.53;;;;;;;;;;4941605;28;20129;-76
2023/05/07 13:50:30;;;;;;;8.52;7.63;;;;;;;;;;4942609;28;20039;-79
2023/05/07 13:52:56;;;;;;;7.95;7.07;;;;;;;;;;4917132;28;20098;-79
2023/05/07 13:55:23;;;;;;;10.02;8.00;;;;;;;;;;4954610;28;20535;-78
2023/05/07 13:57:57;;;;;;;9.05;7.53;;;;;;;;;;4950219;28;20116;-78
2023/05/07 14:00:24;;;;;;;9.02;7.63;;;;;;;;;;4953439;28;20042;-78
2023/05/07 14:02:49;;;;;;;9.70;8.65;;;;;;;;;;4949342;28;20463;-78
2023/05/07 14:05:15;;;;;;;13.07;9.18;;;;;;;;;;4931479;28;20122;-78
2023/05/07 14:07:40;;;;;;;10.23;9.15;;;;;;;;;;4951118;28;20050;-79
2023/05/07 14:10:06;;;;;;;14.02;8.93;;;;;;;;;;4955154;28;20039;-78
2023/05/07 14:12:32;;;;;;;9.82;8.82;;;;;;;;;;4956202;28;20369;-79
2023/05/07 14:14:57;;;;;;;9.05;7.88;;;;;;;;;;4951427;28;20140;-78
2023/05/07 14:17:25;;;;;;;9.82;8.82;;;;;;;;;;4934598;28;20070;-78
2023/05/07 14:19:50;;;;;;;10.50;9.40;;;;;;;;;;4914417;28;20043;-79
2023/05/07 14:22:16;;;;;;;10.48;8.82;;;;;;;;;;4954453;28;20050;-78
2023/05/07 14:24:41;;;;;;;10.60;9.10;;;;;;;;;;4955396;28;20117;-79